createdAt,value
2016-11-27T00:00:09.060Z,1013.8
2016-11-27T00:00:19.054Z,1013.78
2016-11-27T00:00:29.046Z,1013.77
2016-11-27T00:00:39.039Z,1013.76
2016-11-27T00:00:49.138Z,1013.77
2016-11-27T00:00:59.028Z,1013.79
2016-11-27T00:01:09.019Z,1013.77
2016-11-27T00:01:19.012Z,1013.83
2016-11-27T00:01:29.007Z,1013.78
2016-11-27T00:01:38.998Z,1013.82
2016-11-27T00:01:48.994Z,1013.75
2016-11-27T00:01:58.985Z,1013.73
2016-11-27T00:02:09.084Z,1013.74
2016-11-27T00:02:18.973Z,1013.78
2016-11-27T00:02:28.966Z,1013.78
2016-11-27T00:02:38.961Z,1013.75
2016-11-27T00:02:48.954Z,1013.76
2016-11-27T00:02:58.947Z,1013.73
2016-11-27T00:03:08.941Z,1013.75
2016-11-27T00:03:18.932Z,1013.74
2016-11-27T00:03:28.927Z,1013.76
2016-11-27T00:03:38.921Z,1013.77
2016-11-27T00:03:48.913Z,1013.75
2016-11-27T00:03:58.904Z,1013.79
2016-11-27T00:04:08.899Z,1013.77
2016-11-27T00:04:18.893Z,1013.76
2016-11-27T00:04:28.887Z,1013.76
2016-11-27T00:04:38.879Z,1013.76
2016-11-27T00:04:48.873Z,1013.73
2016-11-27T00:04:58.867Z,1013.72
2016-11-27T00:05:08.860Z,1013.74
2016-11-27T00:05:18.853Z,1013.73
2016-11-27T00:05:28.848Z,1013.76
2016-11-27T00:05:38.843Z,1013.72
2016-11-27T00:05:48.834Z,1013.76
2016-11-27T00:05:58.830Z,1013.72
2016-11-27T00:06:08.822Z,1013.73
2016-11-27T00:06:18.814Z,1013.75
2016-11-27T00:06:28.807Z,1013.73
2016-11-27T00:06:38.800Z,1013.76
2016-11-27T00:06:48.794Z,1013.74
2016-11-27T00:06:58.788Z,1013.75
2016-11-27T00:07:08.781Z,1013.76
2016-11-27T00:07:18.773Z,1013.78
2016-11-27T00:07:28.767Z,1013.71
2016-11-27T00:07:38.761Z,1013.71
2016-11-27T00:07:48.755Z,1013.75
2016-11-27T00:07:58.746Z,1013.72
2016-11-27T00:08:08.740Z,1013.79
2016-11-27T00:08:18.734Z,1013.74
2016-11-27T00:08:28.729Z,1013.72
2016-11-27T00:08:38.720Z,1013.7
2016-11-27T00:08:48.715Z,1013.72
2016-11-27T00:08:58.709Z,1013.74
2016-11-27T00:09:08.700Z,1013.75
2016-11-27T00:09:18.694Z,1013.74
2016-11-27T00:09:28.687Z,1013.76
2016-11-27T00:09:38.684Z,1013.69
2016-11-27T00:09:48.676Z,1013.73
2016-11-27T00:09:58.669Z,1013.76
2016-11-27T00:10:08.661Z,1013.78
2016-11-27T00:10:18.656Z,1013.76
2016-11-27T00:10:28.649Z,1013.77
2016-11-27T00:10:38.643Z,1013.74
2016-11-27T00:10:48.635Z,1013.78
2016-11-27T00:10:58.628Z,1013.81
2016-11-27T00:11:08.623Z,1013.75
2016-11-27T00:11:18.616Z,1013.77
2016-11-27T00:11:28.609Z,1013.74
2016-11-27T00:11:38.601Z,1013.76
2016-11-27T00:11:48.594Z,1013.78
2016-11-27T00:11:58.695Z,1013.8
2016-11-27T00:12:08.582Z,1013.77
2016-11-27T00:12:18.574Z,1013.74
2016-11-27T00:12:28.569Z,1013.79
2016-11-27T00:12:38.561Z,1013.77
2016-11-27T00:12:48.556Z,1013.81
2016-11-27T00:12:58.549Z,1013.82
2016-11-27T00:13:08.542Z,1013.81
2016-11-27T00:13:18.535Z,1013.77
2016-11-27T00:13:28.529Z,1013.78
2016-11-27T00:13:38.520Z,1013.79
2016-11-27T00:13:48.516Z,1013.83
2016-11-27T00:13:58.509Z,1013.82
2016-11-27T00:14:08.502Z,1013.81
2016-11-27T00:14:18.497Z,1013.78
2016-11-27T00:14:28.490Z,1013.81
2016-11-27T00:14:38.483Z,1013.76
2016-11-27T00:14:48.477Z,1013.83
2016-11-27T00:14:58.470Z,1013.75
2016-11-27T00:15:08.463Z,1013.79
2016-11-27T00:15:18.454Z,1013.78
2016-11-27T00:15:28.448Z,1013.79
2016-11-27T00:15:38.443Z,1013.79
2016-11-27T00:15:48.436Z,1013.76
2016-11-27T00:15:58.429Z,1013.74
2016-11-27T00:16:08.423Z,1013.8
2016-11-27T00:16:18.416Z,1013.83
2016-11-27T00:16:28.410Z,1013.77
2016-11-27T00:16:38.402Z,1013.78
2016-11-27T00:16:48.397Z,1013.81
2016-11-27T00:16:58.390Z,1013.8
2016-11-27T00:17:08.382Z,1013.78
2016-11-27T00:17:18.377Z,1013.83
2016-11-27T00:17:28.371Z,1013.79
2016-11-27T00:17:38.364Z,1013.77
2016-11-27T00:17:48.358Z,1013.78
2016-11-27T00:17:58.349Z,1013.78
2016-11-27T00:18:08.344Z,1013.79
2016-11-27T00:18:18.337Z,1013.8
2016-11-27T00:18:28.329Z,1013.74
2016-11-27T00:18:38.323Z,1013.72
2016-11-27T00:18:48.316Z,1013.77
2016-11-27T00:18:58.311Z,1013.77
2016-11-27T00:19:08.303Z,1013.8
2016-11-27T00:19:18.296Z,1013.78
2016-11-27T00:19:28.290Z,1013.75
2016-11-27T00:19:38.284Z,1013.71
2016-11-27T00:19:48.278Z,1013.75
2016-11-27T00:19:58.271Z,1013.77
2016-11-27T00:20:08.264Z,1013.75
2016-11-27T00:20:18.256Z,1013.75
2016-11-27T00:20:28.249Z,1013.76
2016-11-27T00:20:38.243Z,1013.75
2016-11-27T00:20:48.235Z,1013.76
2016-11-27T00:20:58.249Z,1013.73
2016-11-27T00:21:08.223Z,1013.74
2016-11-27T00:21:18.218Z,1013.76
2016-11-27T00:21:28.211Z,1013.75
2016-11-27T00:21:38.204Z,1013.78
2016-11-27T00:21:48.199Z,1013.72
2016-11-27T00:21:58.191Z,1013.76
2016-11-27T00:22:08.184Z,1013.76
2016-11-27T00:22:18.178Z,1013.8
2016-11-27T00:22:28.170Z,1013.79
2016-11-27T00:22:38.165Z,1013.75
2016-11-27T00:22:48.157Z,1013.78
2016-11-27T00:22:58.151Z,1013.76
2016-11-27T00:23:08.145Z,1013.73
2016-11-27T00:23:18.138Z,1013.75
2016-11-27T00:23:28.131Z,1013.74
2016-11-27T00:23:38.125Z,1013.77
2016-11-27T00:23:48.119Z,1013.74
2016-11-27T00:23:58.112Z,1013.73
2016-11-27T00:24:08.105Z,1013.72
2016-11-27T00:24:18.099Z,1013.7
2016-11-27T00:24:28.092Z,1013.72
2016-11-27T00:24:38.083Z,1013.76
2016-11-27T00:24:48.078Z,1013.71
2016-11-27T00:24:58.071Z,1013.69
2016-11-27T00:25:08.066Z,1013.7
2016-11-27T00:25:18.060Z,1013.68
2016-11-27T00:25:28.053Z,1013.68
2016-11-27T00:25:38.043Z,1013.68
2016-11-27T00:25:48.054Z,1013.65
2016-11-27T00:25:58.032Z,1013.66
2016-11-27T00:26:08.024Z,1013.68
2016-11-27T00:26:18.018Z,1013.68
2016-11-27T00:26:28.012Z,1013.67
2016-11-27T00:26:38.005Z,1013.68
2016-11-27T00:26:47.999Z,1013.65
2016-11-27T00:26:57.992Z,1013.66
2016-11-27T00:27:07.985Z,1013.69
2016-11-27T00:27:17.978Z,1013.69
2016-11-27T00:27:27.971Z,1013.68
2016-11-27T00:27:37.966Z,1013.63
2016-11-27T00:27:47.958Z,1013.63
2016-11-27T00:27:57.953Z,1013.61
2016-11-27T00:28:07.945Z,1013.63
2016-11-27T00:28:17.938Z,1013.61
2016-11-27T00:28:27.932Z,1013.64
2016-11-27T00:28:37.925Z,1013.67
2016-11-27T00:28:47.918Z,1013.62
2016-11-27T00:28:57.913Z,1013.59
2016-11-27T00:29:07.905Z,1013.66
2016-11-27T00:29:17.899Z,1013.6
2016-11-27T00:29:27.894Z,1013.56
2016-11-27T00:29:37.887Z,1013.61
2016-11-27T00:29:47.879Z,1013.63
2016-11-27T00:29:57.873Z,1013.6
2016-11-27T00:30:07.866Z,1013.58
2016-11-27T00:30:17.860Z,1013.61
2016-11-27T00:30:27.853Z,1013.62
2016-11-27T00:30:37.847Z,1013.6
2016-11-27T00:30:47.843Z,1013.61
2016-11-27T00:30:57.831Z,1013.58
2016-11-27T00:31:07.832Z,1013.62
2016-11-27T00:31:17.819Z,1013.59
2016-11-27T00:31:27.831Z,1013.62
2016-11-27T00:31:37.808Z,1013.61
2016-11-27T00:31:47.802Z,1013.6
2016-11-27T00:31:57.794Z,1013.62
2016-11-27T00:32:07.787Z,1013.67
2016-11-27T00:32:17.781Z,1013.65
2016-11-27T00:32:27.774Z,1013.6
2016-11-27T00:32:37.767Z,1013.59
2016-11-27T00:32:47.762Z,1013.67
2016-11-27T00:32:57.754Z,1013.65
2016-11-27T00:33:07.747Z,1013.65
2016-11-27T00:33:17.739Z,1013.64
2016-11-27T00:33:27.734Z,1013.59
2016-11-27T00:33:37.728Z,1013.59
2016-11-27T00:33:47.721Z,1013.61
2016-11-27T00:33:57.713Z,1013.64
2016-11-27T00:34:07.707Z,1013.62
2016-11-27T00:34:17.702Z,1013.65
2016-11-27T00:34:27.694Z,1013.63
2016-11-27T00:34:37.688Z,1013.66
2016-11-27T00:34:47.682Z,1013.65
2016-11-27T00:34:57.675Z,1013.62
2016-11-27T00:35:07.668Z,1013.63
2016-11-27T00:35:17.661Z,1013.6
2016-11-27T00:35:27.653Z,1013.64
2016-11-27T00:35:37.648Z,1013.62
2016-11-27T00:35:47.659Z,1013.64
2016-11-27T00:35:57.635Z,1013.61
2016-11-27T00:36:07.629Z,1013.66
2016-11-27T00:36:17.622Z,1013.63
2016-11-27T00:36:27.615Z,1013.67
2016-11-27T00:36:37.608Z,1013.64
2016-11-27T00:36:47.602Z,1013.63
2016-11-27T00:36:57.596Z,1013.68
2016-11-27T00:37:07.588Z,1013.66
2016-11-27T00:37:17.582Z,1013.62
2016-11-27T00:37:27.575Z,1013.62
2016-11-27T00:37:37.568Z,1013.62
2016-11-27T00:37:47.563Z,1013.66
2016-11-27T00:37:57.554Z,1013.65
2016-11-27T00:38:07.548Z,1013.7
2016-11-27T00:38:17.543Z,1013.65
2016-11-27T00:38:27.872Z,1013.65
2016-11-27T00:38:37.863Z,1013.7
2016-11-27T00:38:47.524Z,1013.66
2016-11-27T00:38:57.516Z,1013.65
2016-11-27T00:39:07.510Z,1013.63
2016-11-27T00:39:17.502Z,1013.69
2016-11-27T00:39:27.496Z,1013.65
2016-11-27T00:39:37.492Z,1013.7
2016-11-27T00:39:47.482Z,1013.66
2016-11-27T00:39:57.476Z,1013.69
2016-11-27T00:40:07.468Z,1013.62
2016-11-27T00:40:17.463Z,1013.66
2016-11-27T00:40:27.461Z,1013.67
2016-11-27T00:40:37.448Z,1013.62
2016-11-27T00:40:47.444Z,1013.7
2016-11-27T00:40:57.437Z,1013.71
2016-11-27T00:41:07.430Z,1013.65
2016-11-27T00:41:17.424Z,1013.63
2016-11-27T00:41:27.417Z,1013.69
2016-11-27T00:41:37.410Z,1013.67
2016-11-27T00:41:47.419Z,1013.7
2016-11-27T00:41:57.400Z,1013.72
2016-11-27T00:42:07.390Z,1013.65
2016-11-27T00:42:17.385Z,1013.7
2016-11-27T00:42:27.391Z,1013.68
2016-11-27T00:42:37.371Z,1013.65
2016-11-27T00:42:47.363Z,1013.65
2016-11-27T00:42:57.358Z,1013.66
2016-11-27T00:43:07.350Z,1013.65
2016-11-27T00:43:17.344Z,1013.65
2016-11-27T00:43:27.339Z,1013.65
2016-11-27T00:43:37.332Z,1013.63
2016-11-27T00:43:47.324Z,1013.64
2016-11-27T00:43:57.317Z,1013.65
2016-11-27T00:44:07.312Z,1013.7
2016-11-27T00:44:17.305Z,1013.69
2016-11-27T00:44:27.300Z,1013.68
2016-11-27T00:44:37.291Z,1013.68
2016-11-27T00:44:47.285Z,1013.68
2016-11-27T00:44:57.277Z,1013.71
2016-11-27T00:45:07.271Z,1013.72
2016-11-27T00:45:17.265Z,1013.69
2016-11-27T00:45:27.259Z,1013.68
2016-11-27T00:45:37.251Z,1013.68
2016-11-27T00:45:47.580Z,1013.65
2016-11-27T00:45:57.236Z,1013.72
2016-11-27T00:46:07.231Z,1013.67
2016-11-27T00:46:17.226Z,1013.67
2016-11-27T00:46:27.216Z,1013.65
2016-11-27T00:46:37.209Z,1013.71
2016-11-27T00:46:47.205Z,1013.66
2016-11-27T00:46:57.199Z,1013.66
2016-11-27T00:47:07.192Z,1013.66
2016-11-27T00:47:17.184Z,1013.69
2016-11-27T00:47:27.180Z,1013.69
2016-11-27T00:47:37.173Z,1013.65
2016-11-27T00:47:47.185Z,1013.66
2016-11-27T00:47:57.160Z,1013.67
2016-11-27T00:48:07.152Z,1013.66
2016-11-27T00:48:17.146Z,1013.64
2016-11-27T00:48:27.140Z,1013.65
2016-11-27T00:48:37.134Z,1013.66
2016-11-27T00:48:47.128Z,1013.63
2016-11-27T00:48:57.122Z,1013.66
2016-11-27T00:49:07.112Z,1013.66
2016-11-27T00:49:17.105Z,1013.71
2016-11-27T00:49:27.099Z,1013.64
2016-11-27T00:49:37.094Z,1013.67
2016-11-27T00:49:47.087Z,1013.63
2016-11-27T00:49:57.080Z,1013.64
2016-11-27T00:50:07.074Z,1013.64
2016-11-27T00:50:17.067Z,1013.67
2016-11-27T00:50:27.060Z,1013.66
2016-11-27T00:50:37.055Z,1013.7
2016-11-27T00:50:47.047Z,1013.67
2016-11-27T00:50:57.041Z,1013.69
2016-11-27T00:51:07.034Z,1013.7
2016-11-27T00:51:17.026Z,1013.62
2016-11-27T00:51:27.021Z,1013.63
2016-11-27T00:51:37.013Z,1013.64
2016-11-27T00:51:47.007Z,1013.64
2016-11-27T00:51:57.001Z,1013.63
2016-11-27T00:52:06.995Z,1013.63
2016-11-27T00:52:16.989Z,1013.59
2016-11-27T00:52:26.981Z,1013.64
2016-11-27T00:52:36.974Z,1013.56
2016-11-27T00:52:46.969Z,1013.54
2016-11-27T00:52:56.962Z,1013.56
2016-11-27T00:53:06.954Z,1013.59
2016-11-27T00:53:16.949Z,1013.56
2016-11-27T00:53:26.943Z,1013.6
2016-11-27T00:53:36.935Z,1013.61
2016-11-27T00:53:46.929Z,1013.6
2016-11-27T00:53:56.920Z,1013.63
2016-11-27T00:54:06.916Z,1013.58
2016-11-27T00:54:16.909Z,1013.59
2016-11-27T00:54:26.903Z,1013.62
2016-11-27T00:54:36.896Z,1013.61
2016-11-27T00:54:46.889Z,1013.63
2016-11-27T00:54:56.882Z,1013.61
2016-11-27T00:55:06.878Z,1013.59
2016-11-27T00:55:16.870Z,1013.6
2016-11-27T00:55:26.884Z,1013.6
2016-11-27T00:55:36.857Z,1013.61
2016-11-27T00:55:46.848Z,1013.6
2016-11-27T00:55:56.843Z,1013.55
2016-11-27T00:56:06.837Z,1013.56
2016-11-27T00:56:16.829Z,1013.58
2016-11-27T00:56:26.824Z,1013.62
2016-11-27T00:56:36.814Z,1013.6
2016-11-27T00:56:46.809Z,1013.6
2016-11-27T00:56:56.803Z,1013.58
2016-11-27T00:57:06.795Z,1013.57
2016-11-27T00:57:16.790Z,1013.59
2016-11-27T00:57:26.784Z,1013.63
2016-11-27T00:57:36.777Z,1013.64
2016-11-27T00:57:46.771Z,1013.59
2016-11-27T00:57:56.764Z,1013.63
2016-11-27T00:58:06.757Z,1013.56
2016-11-27T00:58:16.752Z,1013.55
2016-11-27T00:58:26.744Z,1013.62
2016-11-27T00:58:36.740Z,1013.61
2016-11-27T00:58:46.730Z,1013.62
2016-11-27T00:58:56.724Z,1013.62
2016-11-27T00:59:06.718Z,1013.63
2016-11-27T00:59:16.711Z,1013.63
2016-11-27T00:59:26.705Z,1013.52
2016-11-27T00:59:36.700Z,1013.65
2016-11-27T00:59:46.692Z,1013.63
2016-11-27T00:59:56.686Z,1013.55
2016-11-27T01:00:06.679Z,1013.64
2016-11-27T01:00:16.670Z,1013.57
2016-11-27T01:00:26.665Z,1013.58
2016-11-27T01:00:36.659Z,1013.59
2016-11-27T01:00:46.652Z,1013.55
2016-11-27T01:00:56.645Z,1013.63
2016-11-27T01:01:06.638Z,1013.66
2016-11-27T01:01:16.631Z,1013.62
2016-11-27T01:01:26.626Z,1013.61
2016-11-27T01:01:36.619Z,1013.68
2016-11-27T01:01:46.612Z,1013.54
2016-11-27T01:01:56.605Z,1013.63
2016-11-27T01:02:06.598Z,1013.63
2016-11-27T01:02:16.593Z,1013.6
2016-11-27T01:02:26.585Z,1013.67
2016-11-27T01:02:36.579Z,1013.58
2016-11-27T01:02:46.573Z,1013.65
2016-11-27T01:02:56.566Z,1013.62
2016-11-27T01:03:06.560Z,1013.66
2016-11-27T01:03:16.551Z,1013.61
2016-11-27T01:03:26.546Z,1013.66
2016-11-27T01:03:36.540Z,1013.66
2016-11-27T01:03:46.533Z,1013.67
2016-11-27T01:03:56.528Z,1013.61
2016-11-27T01:04:06.520Z,1013.62
2016-11-27T01:04:16.514Z,1013.62
2016-11-27T01:04:26.507Z,1013.67
2016-11-27T01:04:36.500Z,1013.67
2016-11-27T01:04:46.494Z,1013.69
2016-11-27T01:04:56.488Z,1013.65
2016-11-27T01:05:06.482Z,1013.62
2016-11-27T01:05:16.475Z,1013.69
2016-11-27T01:05:26.469Z,1013.68
2016-11-27T01:05:36.461Z,1013.59
2016-11-27T01:05:46.454Z,1013.59
2016-11-27T01:05:56.447Z,1013.69
2016-11-27T01:06:06.441Z,1013.6
2016-11-27T01:06:16.434Z,1013.59
2016-11-27T01:06:26.428Z,1013.62
2016-11-27T01:06:36.420Z,1013.6
2016-11-27T01:06:46.415Z,1013.61
2016-11-27T01:06:56.409Z,1013.67
2016-11-27T01:07:06.402Z,1013.63
2016-11-27T01:07:16.395Z,1013.67
2016-11-27T01:07:26.387Z,1013.67
2016-11-27T01:07:36.383Z,1013.63
2016-11-27T01:07:46.375Z,1013.65
2016-11-27T01:07:56.369Z,1013.67
2016-11-27T01:08:06.362Z,1013.69
2016-11-27T01:08:16.355Z,1013.67
2016-11-27T01:08:26.350Z,1013.52
2016-11-27T01:08:36.342Z,1013.63
2016-11-27T01:08:46.336Z,1013.61
2016-11-27T01:08:56.330Z,1013.62
2016-11-27T01:09:06.322Z,1013.6
2016-11-27T01:09:16.327Z,1013.62
2016-11-27T01:09:26.311Z,1013.66
2016-11-27T01:09:36.303Z,1013.59
2016-11-27T01:09:46.297Z,1013.64
2016-11-27T01:09:56.289Z,1013.63
2016-11-27T01:10:06.283Z,1013.68
2016-11-27T01:10:16.277Z,1013.63
2016-11-27T01:10:26.270Z,1013.64
2016-11-27T01:10:36.265Z,1013.68
2016-11-27T01:10:46.592Z,1013.6
2016-11-27T01:10:56.250Z,1013.62
2016-11-27T01:11:06.244Z,1013.64
2016-11-27T01:11:16.237Z,1013.61
2016-11-27T01:11:26.231Z,1013.61
2016-11-27T01:11:36.225Z,1013.6
2016-11-27T01:11:46.220Z,1013.62
2016-11-27T01:11:56.212Z,1013.66
2016-11-27T01:12:06.205Z,1013.64
2016-11-27T01:12:16.199Z,1013.65
2016-11-27T01:12:26.190Z,1013.64
2016-11-27T01:12:36.185Z,1013.62
2016-11-27T01:12:46.180Z,1013.64
2016-11-27T01:12:56.171Z,1013.61
2016-11-27T01:13:06.163Z,1013.63
2016-11-27T01:13:16.160Z,1013.62
2016-11-27T01:13:26.152Z,1013.65
2016-11-27T01:13:36.145Z,1013.61
2016-11-27T01:13:46.140Z,1013.61
2016-11-27T01:13:56.132Z,1013.62
2016-11-27T01:14:06.125Z,1013.61
2016-11-27T01:14:16.118Z,1013.58
2016-11-27T01:14:26.113Z,1013.64
2016-11-27T01:14:36.107Z,1013.59
2016-11-27T01:14:46.099Z,1013.6
2016-11-27T01:14:56.093Z,1013.62
2016-11-27T01:15:06.087Z,1013.59
2016-11-27T01:15:16.078Z,1013.67
2016-11-27T01:15:26.073Z,1013.6
2016-11-27T01:15:36.066Z,1013.65
2016-11-27T01:15:46.078Z,1013.61
2016-11-27T01:15:56.054Z,1013.57
2016-11-27T01:16:06.050Z,1013.63
2016-11-27T01:16:16.040Z,1013.61
2016-11-27T01:16:26.034Z,1013.66
2016-11-27T01:16:36.027Z,1013.65
2016-11-27T01:16:46.022Z,1013.67
2016-11-27T01:16:56.014Z,1013.66
2016-11-27T01:17:06.010Z,1013.69
2016-11-27T01:17:16.002Z,1013.67
2016-11-27T01:17:25.994Z,1013.62
2016-11-27T01:17:35.987Z,1013.72
2016-11-27T01:17:45.983Z,1013.67
2016-11-27T01:17:55.974Z,1013.69
2016-11-27T01:18:05.968Z,1013.67
2016-11-27T01:18:15.962Z,1013.63
2016-11-27T01:18:25.955Z,1013.68
2016-11-27T01:18:35.948Z,1013.64
2016-11-27T01:18:45.942Z,1013.68
2016-11-27T01:18:55.937Z,1013.69
2016-11-27T01:19:05.929Z,1013.65
2016-11-27T01:19:15.922Z,1013.66
2016-11-27T01:19:25.917Z,1013.65
2016-11-27T01:19:35.909Z,1013.67
2016-11-27T01:19:45.900Z,1013.69
2016-11-27T01:19:55.895Z,1013.69
2016-11-27T01:20:05.891Z,1013.7
2016-11-27T01:20:15.882Z,1013.66
2016-11-27T01:20:25.876Z,1013.68
2016-11-27T01:20:35.869Z,1013.68
2016-11-27T01:20:45.867Z,1013.74
2016-11-27T01:20:55.857Z,1013.71
2016-11-27T01:21:05.850Z,1013.68
2016-11-27T01:21:15.843Z,1013.71
2016-11-27T01:21:25.839Z,1013.64
2016-11-27T01:21:35.829Z,1013.73
2016-11-27T01:21:45.824Z,1013.71
2016-11-27T01:21:55.815Z,1013.7
2016-11-27T01:22:05.815Z,1013.68
2016-11-27T01:22:15.804Z,1013.7
2016-11-27T01:22:25.797Z,1013.68
2016-11-27T01:22:35.790Z,1013.67
2016-11-27T01:22:45.785Z,1013.7
2016-11-27T01:22:55.776Z,1013.72
2016-11-27T01:23:05.770Z,1013.67
2016-11-27T01:23:15.763Z,1013.74
2016-11-27T01:23:25.757Z,1013.7
2016-11-27T01:23:35.751Z,1013.7
2016-11-27T01:23:45.745Z,1013.73
2016-11-27T01:23:55.739Z,1013.74
2016-11-27T01:24:05.732Z,1013.73
2016-11-27T01:24:15.724Z,1013.74
2016-11-27T01:24:25.718Z,1013.74
2016-11-27T01:24:35.712Z,1013.73
2016-11-27T01:24:45.708Z,1013.78
2016-11-27T01:24:55.803Z,1013.75
2016-11-27T01:25:05.695Z,1013.79
2016-11-27T01:25:15.685Z,1013.72
2016-11-27T01:25:25.681Z,1013.74
2016-11-27T01:25:35.672Z,1013.78
2016-11-27T01:25:45.667Z,1013.78
2016-11-27T01:25:55.659Z,1013.79
2016-11-27T01:26:05.653Z,1013.79
2016-11-27T01:26:15.647Z,1013.79
2016-11-27T01:26:25.639Z,1013.81
2016-11-27T01:26:35.968Z,1013.77
2016-11-27T01:26:45.627Z,1013.78
2016-11-27T01:26:55.620Z,1013.82
2016-11-27T01:27:05.614Z,1013.8
2016-11-27T01:27:15.605Z,1013.77
2016-11-27T01:27:25.600Z,1013.82
2016-11-27T01:27:35.594Z,1013.75
2016-11-27T01:27:45.587Z,1013.82
2016-11-27T01:27:55.581Z,1013.84
2016-11-27T01:28:05.575Z,1013.8
2016-11-27T01:28:15.567Z,1013.8
2016-11-27T01:28:25.561Z,1013.85
2016-11-27T01:28:35.554Z,1013.81
2016-11-27T01:28:45.548Z,1013.84
2016-11-27T01:28:55.542Z,1013.86
2016-11-27T01:29:05.535Z,1013.83
2016-11-27T01:29:15.528Z,1013.87
2016-11-27T01:29:25.522Z,1013.84
2016-11-27T01:29:35.515Z,1013.8
2016-11-27T01:29:45.510Z,1013.8
2016-11-27T01:29:55.501Z,1013.81
2016-11-27T01:30:05.496Z,1013.82
2016-11-27T01:30:15.490Z,1013.86
2016-11-27T01:30:25.482Z,1013.77
2016-11-27T01:30:35.476Z,1013.79
2016-11-27T01:30:45.470Z,1013.81
2016-11-27T01:30:55.463Z,1013.8
2016-11-27T01:31:05.456Z,1013.81
2016-11-27T01:31:15.449Z,1013.82
2016-11-27T01:31:25.443Z,1013.8
2016-11-27T01:31:35.436Z,1013.84
2016-11-27T01:31:45.430Z,1013.81
2016-11-27T01:31:55.426Z,1013.76
2016-11-27T01:32:05.418Z,1013.81
2016-11-27T01:32:15.409Z,1013.84
2016-11-27T01:32:25.403Z,1013.84
2016-11-27T01:32:35.397Z,1013.84
2016-11-27T01:32:45.391Z,1013.82
2016-11-27T01:32:55.402Z,1013.82
2016-11-27T01:33:05.377Z,1013.81
2016-11-27T01:33:15.372Z,1013.84
2016-11-27T01:33:25.367Z,1013.83
2016-11-27T01:33:35.356Z,1013.83
2016-11-27T01:33:45.352Z,1013.85
2016-11-27T01:33:55.344Z,1013.85
2016-11-27T01:34:05.340Z,1013.81
2016-11-27T01:34:15.332Z,1013.82
2016-11-27T01:34:25.325Z,1013.82
2016-11-27T01:34:35.319Z,1013.84
2016-11-27T01:34:45.313Z,1013.82
2016-11-27T01:34:55.306Z,1013.82
2016-11-27T01:35:05.298Z,1013.84
2016-11-27T01:35:15.627Z,1013.87
2016-11-27T01:35:25.286Z,1013.81
2016-11-27T01:35:35.613Z,1013.83
2016-11-27T01:35:45.271Z,1013.84
2016-11-27T01:35:55.269Z,1013.86
2016-11-27T01:36:05.260Z,1013.8
2016-11-27T01:36:15.253Z,1013.81
2016-11-27T01:36:25.247Z,1013.82
2016-11-27T01:36:35.241Z,1013.83
2016-11-27T01:36:45.233Z,1013.79
2016-11-27T01:36:55.230Z,1013.83
2016-11-27T01:37:05.220Z,1013.83
2016-11-27T01:37:15.213Z,1013.8
2016-11-27T01:37:25.208Z,1013.81
2016-11-27T01:37:35.201Z,1013.85
2016-11-27T01:37:45.194Z,1013.86
2016-11-27T01:37:55.188Z,1013.82
2016-11-27T01:38:05.181Z,1013.84
2016-11-27T01:38:15.174Z,1013.83
2016-11-27T01:38:25.168Z,1013.87
2016-11-27T01:38:35.162Z,1013.83
2016-11-27T01:38:45.155Z,1013.88
2016-11-27T01:38:55.149Z,1013.87
2016-11-27T01:39:05.141Z,1013.85
2016-11-27T01:39:15.133Z,1013.88
2016-11-27T01:39:25.128Z,1013.84
2016-11-27T01:39:35.123Z,1013.86
2016-11-27T01:39:45.115Z,1013.85
2016-11-27T01:39:55.110Z,1013.9
2016-11-27T01:40:05.103Z,1013.87
2016-11-27T01:40:15.096Z,1013.88
2016-11-27T01:40:25.090Z,1013.81
2016-11-27T01:40:35.082Z,1013.84
2016-11-27T01:40:45.077Z,1013.85
2016-11-27T01:40:55.072Z,1013.84
2016-11-27T01:41:05.064Z,1013.89
2016-11-27T01:41:15.057Z,1013.9
2016-11-27T01:41:25.051Z,1013.82
2016-11-27T01:41:35.041Z,1013.87
2016-11-27T01:41:45.044Z,1013.91
2016-11-27T01:41:55.030Z,1013.85
2016-11-27T01:42:05.024Z,1013.83
2016-11-27T01:42:15.018Z,1013.83
2016-11-27T01:42:25.011Z,1013.83
2016-11-27T01:42:35.004Z,1013.87
2016-11-27T01:42:44.998Z,1013.85
2016-11-27T01:42:54.991Z,1013.86
2016-11-27T01:43:04.985Z,1013.87
2016-11-27T01:43:14.978Z,1013.89
2016-11-27T01:43:24.972Z,1013.9
2016-11-27T01:43:34.967Z,1013.89
2016-11-27T01:43:44.958Z,1013.92
2016-11-27T01:43:54.952Z,1013.89
2016-11-27T01:44:04.947Z,1013.84
2016-11-27T01:44:14.939Z,1013.87
2016-11-27T01:44:24.933Z,1013.9
2016-11-27T01:44:34.926Z,1013.89
2016-11-27T01:44:44.920Z,1013.89
2016-11-27T01:44:54.911Z,1013.86
2016-11-27T01:45:04.907Z,1013.92
2016-11-27T01:45:14.900Z,1013.96
2016-11-27T01:45:24.894Z,1013.85
2016-11-27T01:45:34.887Z,1013.92
2016-11-27T01:45:44.880Z,1013.91
2016-11-27T01:45:54.873Z,1013.96
2016-11-27T01:46:04.866Z,1013.89
2016-11-27T01:46:14.860Z,1013.91
2016-11-27T01:46:24.957Z,1013.94
2016-11-27T01:46:34.848Z,1013.92
2016-11-27T01:46:44.841Z,1013.93
2016-11-27T01:46:54.834Z,1013.93
2016-11-27T01:47:04.828Z,1013.92
2016-11-27T01:47:14.820Z,1013.99
2016-11-27T01:47:24.815Z,1013.98
2016-11-27T01:47:34.809Z,1013.88
2016-11-27T01:47:44.801Z,1013.96
2016-11-27T01:47:54.797Z,1013.91
2016-11-27T01:48:04.789Z,1013.97
2016-11-27T01:48:14.781Z,1014
2016-11-27T01:48:24.777Z,1014
2016-11-27T01:48:34.769Z,1014.04
2016-11-27T01:48:44.763Z,1013.98
2016-11-27T01:48:54.756Z,1014.03
2016-11-27T01:49:04.770Z,1014.05
2016-11-27T01:49:14.742Z,1013.99
2016-11-27T01:49:24.738Z,1014.02
2016-11-27T01:49:34.730Z,1014.02
2016-11-27T01:49:44.725Z,1014.06
2016-11-27T01:49:54.715Z,1014.06
2016-11-27T01:50:04.709Z,1014.03
2016-11-27T01:50:14.709Z,1014.04
2016-11-27T01:50:24.697Z,1014.09
2016-11-27T01:50:34.690Z,1014.05
2016-11-27T01:50:44.683Z,1014.03
2016-11-27T01:50:54.677Z,1014.07
2016-11-27T01:51:04.671Z,1014.03
2016-11-27T01:51:14.664Z,1014.04
2016-11-27T01:51:24.658Z,1014.1
2016-11-27T01:51:34.652Z,1014.05
2016-11-27T01:51:44.645Z,1014.04
2016-11-27T01:51:54.639Z,1014.08
2016-11-27T01:52:04.633Z,1014.07
2016-11-27T01:52:14.626Z,1014.03
2016-11-27T01:52:24.619Z,1014.07
2016-11-27T01:52:34.610Z,1014.04
2016-11-27T01:52:44.605Z,1014.07
2016-11-27T01:52:54.598Z,1014.1
2016-11-27T01:53:04.593Z,1014.08
2016-11-27T01:53:14.586Z,1014.06
2016-11-27T01:53:24.581Z,1014.04
2016-11-27T01:53:34.573Z,1014.1
2016-11-27T01:53:44.566Z,1014.16
2016-11-27T01:53:54.894Z,1014.1
2016-11-27T01:54:04.553Z,1014.08
2016-11-27T01:54:14.651Z,1014.05
2016-11-27T01:54:24.540Z,1014.09
2016-11-27T01:54:34.536Z,1014.09
2016-11-27T01:54:44.529Z,1014.09
2016-11-27T01:54:54.520Z,1014.11
2016-11-27T01:55:04.514Z,1014.12
2016-11-27T01:55:14.507Z,1014.11
2016-11-27T01:55:24.501Z,1014.05
2016-11-27T01:55:34.496Z,1014.04
2016-11-27T01:55:44.507Z,1014.09
2016-11-27T01:55:54.481Z,1014.08
2016-11-27T01:56:04.476Z,1014.05
2016-11-27T01:56:14.469Z,1014.03
2016-11-27T01:56:24.462Z,1014.03
2016-11-27T01:56:34.456Z,1014.08
2016-11-27T01:56:44.449Z,1014.01
2016-11-27T01:56:54.443Z,1014.05
2016-11-27T01:57:04.435Z,1014.03
2016-11-27T01:57:14.429Z,1014.07
2016-11-27T01:57:24.424Z,1014.07
2016-11-27T01:57:34.416Z,1014.09
2016-11-27T01:57:44.410Z,1014.09
2016-11-27T01:57:54.403Z,1014.05
2016-11-27T01:58:04.398Z,1014.06
2016-11-27T01:58:14.390Z,1014.05
2016-11-27T01:58:24.382Z,1014.05
2016-11-27T01:58:34.377Z,1014.08
2016-11-27T01:58:44.370Z,1014.05
2016-11-27T01:58:54.364Z,1014.03
2016-11-27T01:59:04.357Z,1014.03
2016-11-27T01:59:14.350Z,1014.03
2016-11-27T01:59:24.343Z,1014.07
2016-11-27T01:59:34.339Z,1013.97
2016-11-27T01:59:44.331Z,1014.08
2016-11-27T01:59:54.325Z,1014.07
2016-11-27T02:00:04.323Z,1014.07
2016-11-27T02:00:14.311Z,1014.08
2016-11-27T02:00:24.306Z,1014.11
2016-11-27T02:00:34.298Z,1014.11
2016-11-27T02:00:44.292Z,1014.04
2016-11-27T02:00:54.286Z,1014.07
2016-11-27T02:01:04.279Z,1014.04
2016-11-27T02:01:14.274Z,1014.08